Terminal Aerodrome Forecast
Issued by NWS Wilmington, OH

Home | Current Version | Previous Version | Text Only | Print | Product List | Glossary On
Versions: 1 2 3 4 5 6 7 8 9 10 11 12 13 14 15 16 17 18 19 20
000
FTUS41 KILN 272345
TAFCMH
TAF
KCMH 272345Z 2800/2824 13005KT P6SM OVC060
     FM280500 14004KT P6SM BKN150
     FM281400 16008KT P6SM VCSH OVC070
     FM281700 17009KT P6SM -SHRA OVC018
     FM281900 17009KT P6SM -SHRA OVC009
     FM282200 19010KT P6SM OVC011=

USA.gov is the U.S. government's official web portal to all federal, state and local government web resources and services.